KSCF/SCF METAR and TAF weather

Enter ICAO airport designator
Station Type Date Time Source
KSCF METAR 2020/06/17 22:25 UTC NOAA

KSCF 172225Z AUTO VRB04KT 10SM CLR 30/21 A3002 RMK A01


Station Type Date Time Source
KSCF Decoded METAR 2020/06/17 22:25 UTC NOAA

South Marsh 268, LA, United States (KSCF) 29-06-57N 091-52-16W
Jun 17, 2020 - 06:25 PM EDT / 2020.06.17 2225 UTC
Wind: Variable at 5 MPH (4 KT):0
Visibility: 10 mile(s):0
Sky conditions: clear
Temperature: 86 F (30 C)
Dew Point: 69 F (21 C)
Relative Humidity: 58%
Pressure (altimeter): 30.02 in. Hg (1016 hPa)
ob: KSCF 172225Z AUTO VRB04KT 10SM CLR 30/21 A3002 RMK A01
cycle: 22

Station Type Date Time Source
KSCF TAF UTC NOAA

Error!

Example: see airport list